Time;durP1;ratioP1;P1;durP2;ratioP2;P2;SDS_P1;SDS_P2;PMS_P1;PMS_P2;Temp;Humidity;BMP_temperature;BMP_pressure;BME280_temperature;BME280_humidity;BME280_pressure;Samples;Min_cycle;Max_cycle;Signal;HPM_P1;HPM_P2
2021/10/07 00:00:57;;;;;;;5.45;4.60;;;12.20;99.90;;;;;;5031257;28;20496;-66
2021/10/07 00:03:22;;;;;;;7.50;4.45;;;12.20;99.90;;;;;;5027915;28;20018;-66
2021/10/07 00:05:48;;;;;;;8.32;4.63;;;12.20;99.90;;;;;;5028053;28;20079;-66
2021/10/07 00:08:13;;;;;;;7.85;4.68;;;12.10;99.90;;;;;;5025631;28;20497;-66
2021/10/07 00:10:39;;;;;;;17.42;4.57;;;12.10;99.90;;;;;;5030458;28;20493;-66
2021/10/07 00:13:05;;;;;;;8.32;4.32;;;12.10;99.90;;;;;;5025352;28;20036;-67
2021/10/07 00:15:30;;;;;;;7.57;4.20;;;12.10;99.90;;;;;;5030253;28;20493;-66
2021/10/07 00:17:57;;;;;;;9.77;4.32;;;12.00;99.90;;;;;;5024841;28;20025;-66
2021/10/07 00:20:23;;;;;;;22.02;4.68;;;12.00;99.90;;;;;;5031122;28;20116;-66
2021/10/07 00:22:49;;;;;;;42.97;4.75;;;12.00;99.90;;;;;;5033212;28;20100;-66
2021/10/07 00:25:15;;;;;;;25.58;4.07;;;11.90;99.90;;;;;;5032125;28;20030;-66
2021/10/07 00:27:41;;;;;;;9.05;4.38;;;11.90;99.90;;;;;;5031890;28;20130;-66
2021/10/07 00:30:12;;;;;;;6.43;4.05;;;11.90;99.90;;;;;;5034623;28;20042;-66
2021/10/07 00:32:50;;;;;;;7.00;3.50;;;11.90;99.90;;;;;;5034008;28;20026;-66
2021/10/07 00:35:33;;;;;;;13.38;4.13;;;11.80;99.90;;;;;;5033904;28;20171;-66
2021/10/07 00:40:44;;;;;;;13.02;2.70;;;11.80;99.90;;;;;;5034631;28;20048;-66
2021/10/07 00:43:10;;;;;;;17.83;2.28;;;11.80;99.90;;;;;;5034525;28;20487;-66
2021/10/07 00:45:35;;;;;;;11.80;2.00;;;11.70;99.90;;;;;;5034258;28;20033;-66
2021/10/07 00:48:01;;;;;;;17.08;2.05;;;11.70;99.90;;;;;;5034446;28;20056;-66
2021/10/07 00:50:26;;;;;;;11.20;2.50;;;11.60;99.90;;;;;;5034628;28;20021;-66
2021/10/07 00:52:52;;;;;;;32.53;2.70;;;11.60;99.90;;;;;;5026042;28;20547;-66
2021/10/07 00:55:17;;;;;;;10.95;2.53;;;11.60;99.90;;;;;;5031146;28;20128;-66
2021/10/07 00:57:43;;;;;;;10.98;2.20;;;11.50;99.90;;;;;;5034021;28;20029;-66
2021/10/07 01:00:09;;;;;;;13.93;1.67;;;11.50;99.90;;;;;;5033765;28;20087;-66
2021/10/07 01:02:36;;;;;;;9.52;1.77;;;11.40;99.90;;;;;;5033675;28;20029;-66
2021/10/07 01:05:01;;;;;;;5.85;1.60;;;11.40;99.90;;;;;;5034084;28;20021;-66
2021/10/07 01:07:28;;;;;;;10.40;1.55;;;11.40;99.90;;;;;;5032807;28;20539;-66
2021/10/07 01:09:54;;;;;;;5.45;1.70;;;11.30;99.90;;;;;;5033723;28;20536;-66
2021/10/07 01:12:19;;;;;;;21.58;1.83;;;11.30;99.90;;;;;;5033617;28;20025;-66
2021/10/07 01:14:48;;;;;;;14.00;1.38;;;11.30;99.90;;;;;;5033853;28;20017;-66
2021/10/07 01:17:16;;;;;;;21.85;1.98;;;11.20;99.90;;;;;;5033419;28;20021;-66
2021/10/07 01:19:43;;;;;;;12.18;1.70;;;11.20;99.90;;;;;;5033654;28;20032;-66
2021/10/07 01:22:08;;;;;;;15.25;1.95;;;11.20;99.90;;;;;;5033775;28;20060;-66
2021/10/07 01:24:34;;;;;;;14.55;1.63;;;11.20;99.90;;;;;;5032340;28;20438;-66
2021/10/07 01:27:00;;;;;;;12.18;2.10;;;11.20;99.90;;;;;;5033448;28;20079;-66
2021/10/07 01:29:25;;;;;;;9.05;2.03;;;11.10;99.90;;;;;;5030701;28;20485;-66
2021/10/07 01:31:51;;;;;;;10.80;2.20;;;11.10;99.90;;;;;;5032068;28;20032;-67
2021/10/07 01:34:22;;;;;;;7.38;2.38;;;11.10;99.90;;;;;;5032197;28;20021;-67
2021/10/07 01:36:48;;;;;;;10.43;2.38;;;11.10;99.90;;;;;;5032058;28;20060;-66
2021/10/07 01:39:13;;;;;;;12.77;2.15;;;11.10;99.90;;;;;;5029353;28;20441;-66
2021/10/07 01:41:39;;;;;;;20.23;2.30;;;11.10;99.90;;;;;;5024163;28;20014;-66
2021/10/07 01:44:04;;;;;;;16.77;2.20;;;11.00;99.90;;;;;;5033209;28;20477;-67
2021/10/07 01:46:30;;;;;;;21.55;1.85;;;11.00;99.90;;;;;;5030268;28;20104;-67
2021/10/07 01:48:55;;;;;;;14.15;1.95;;;11.00;99.90;;;;;;5033319;28;21581;-66
2021/10/07 01:51:21;;;;;;;13.07;1.58;;;10.90;99.90;;;;;;5030463;28;20029;-66
2021/10/07 01:53:46;;;;;;;17.65;1.40;;;10.90;99.90;;;;;;5030134;28;20017;-66
2021/10/07 01:56:12;;;;;;;5.80;1.95;;;10.90;99.90;;;;;;5033120;28;20033;-66
2021/10/07 01:58:37;;;;;;;8.45;3.00;;;10.80;99.90;;;;;;5015207;28;20025;-66
2021/10/07 02:01:03;;;;;;;8.82;3.00;;;10.80;99.90;;;;;;5032651;28;20420;-66
2021/10/07 02:03:28;;;;;;;8.50;3.33;;;10.80;99.90;;;;;;5034562;28;20105;-67
2021/10/07 02:05:54;;;;;;;4.20;2.70;;;10.80;99.90;;;;;;5024515;28;20026;-66
2021/10/07 02:08:19;;;;;;;5.60;3.25;;;10.80;99.90;;;;;;5015630;28;20405;-66
2021/10/07 02:10:45;;;;;;;5.38;3.70;;;10.80;99.90;;;;;;5013530;28;20029;-66
2021/10/07 02:13:10;;;;;;;7.05;3.85;;;10.80;99.90;;;;;;5013147;28;20025;-67
2021/10/07 02:15:36;;;;;;;7.28;3.80;;;10.80;99.90;;;;;;5012954;28;20570;-66
2021/10/07 02:18:02;;;;;;;10.60;3.55;;;10.80;99.90;;;;;;5028351;28;20023;-66
2021/10/07 02:20:27;;;;;;;6.57;4.00;;;10.80;99.90;;;;;;5033843;28;20030;-66
2021/10/07 02:22:53;;;;;;;7.35;4.68;;;10.80;99.90;;;;;;5034151;28;20053;-66
2021/10/07 02:25:18;;;;;;;6.45;3.90;;;10.90;99.90;;;;;;5018618;28;20112;-66
2021/10/07 02:27:44;;;;;;;6.50;4.32;;;10.90;99.90;;;;;;5012636;28;20026;-66
2021/10/07 02:30:13;;;;;;;9.02;4.40;;;10.90;99.90;;;;;;5014331;28;20496;-66
2021/10/07 02:32:39;;;;;;;9.73;4.60;;;10.90;99.90;;;;;;5012388;28;20030;-66
2021/10/07 02:35:06;;;;;;;9.90;3.63;;;10.90;99.90;;;;;;5014195;28;20069;-66
2021/10/07 02:37:31;;;;;;;5.63;4.18;;;10.90;99.90;;;;;;5014108;28;20465;-66
2021/10/07 02:39:57;;;;;;;7.22;4.25;;;10.90;99.90;;;;;;5027577;28;20036;-67
2021/10/07 02:42:22;;;;;;;9.38;4.03;;;10.90;99.90;;;;;;5015988;28;20482;-66
2021/10/07 02:44:48;;;;;;;12.93;4.75;;;11.00;99.90;;;;;;5019164;28;20104;-66
2021/10/07 02:47:13;;;;;;;5.97;3.83;;;11.00;99.90;;;;;;5013329;28;20064;-66
2021/10/07 02:49:39;;;;;;;9.18;4.78;;;11.00;99.90;;;;;;5016246;28;20029;-66
2021/10/07 02:52:05;;;;;;;7.38;3.70;;;11.00;99.90;;;;;;5017928;28;20018;-66
2021/10/07 02:54:30;;;;;;;7.13;4.63;;;11.00;99.90;;;;;;5015348;28;20509;-66
2021/10/07 02:56:56;;;;;;;9.88;4.65;;;11.00;99.90;;;;;;5015006;28;20728;-66
2021/10/07 02:59:21;;;;;;;15.88;5.63;;;11.00;99.90;;;;;;5015416;28;20057;-66
2021/10/07 03:01:47;;;;;;;14.88;5.07;;;11.00;99.90;;;;;;5012275;28;20021;-66
2021/10/07 03:04:13;;;;;;;16.55;4.78;;;11.00;99.90;;;;;;5012002;28;20030;-66
2021/10/07 03:06:38;;;;;;;14.10;5.35;;;11.00;99.90;;;;;;5020268;28;20018;-66
2021/10/07 03:09:04;;;;;;;10.98;4.90;;;11.00;99.90;;;;;;5014697;28;20600;-66
2021/10/07 03:11:29;;;;;;;18.00;5.43;;;11.00;99.90;;;;;;5012097;28;20026;-66
2021/10/07 03:13:55;;;;;;;13.23;5.57;;;11.10;99.90;;;;;;5020048;28;20013;-66
2021/10/07 03:16:20;;;;;;;17.00;5.70;;;11.00;99.90;;;;;;5011861;28;20125;-67
2021/10/07 03:18:46;;;;;;;13.48;5.30;;;11.10;99.90;;;;;;5011687;28;20394;-66
2021/10/07 03:21:11;;;;;;;15.45;5.32;;;11.10;99.90;;;;;;5011814;28;20473;-66
2021/10/07 03:23:37;;;;;;;11.82;5.93;;;11.10;99.90;;;;;;5011693;28;20115;-66
2021/10/07 03:26:02;;;;;;;17.25;5.60;;;11.10;99.90;;;;;;5011812;28;20054;-66
2021/10/07 03:28:28;;;;;;;11.13;6.15;;;11.10;99.90;;;;;;5014404;28;20052;-66
2021/10/07 03:30:53;;;;;;;20.45;6.32;;;11.10;99.90;;;;;;5014453;28;20030;-66
2021/10/07 03:33:19;;;;;;;21.67;6.63;;;11.10;99.90;;;;;;5026344;28;20076;-66
2021/10/07 03:35:44;;;;;;;21.50;7.55;;;11.10;99.90;;;;;;5026861;28;20018;-66
2021/10/07 03:38:10;;;;;;;21.05;6.97;;;11.20;99.90;;;;;;5011870;28;20032;-66
2021/10/07 03:40:35;;;;;;;17.48;7.20;;;11.20;99.90;;;;;;5026640;28;20433;-66
2021/10/07 03:43:01;;;;;;;19.45;6.75;;;11.20;99.90;;;;;;5016791;28;20540;-66
2021/10/07 03:45:27;;;;;;;13.40;7.03;;;11.20;99.90;;;;;;5011452;28;20018;-66
2021/10/07 03:47:53;;;;;;;13.25;7.00;;;11.10;99.90;;;;;;5014173;28;20520;-66
2021/10/07 03:50:18;;;;;;;15.45;6.97;;;11.10;99.90;;;;;;5010846;28;20026;-66
2021/10/07 03:52:44;;;;;;;20.52;7.38;;;11.10;99.90;;;;;;5019332;28;20045;-66
2021/10/07 03:55:09;;;;;;;18.98;7.13;;;11.20;99.90;;;;;;5015255;28;20061;-67
2021/10/07 03:57:35;;;;;;;24.95;6.47;;;11.20;99.90;;;;;;5014974;28;20075;-66
2021/10/07 04:00:01;;;;;;;11.43;7.40;;;11.20;99.90;;;;;;5012394;28;20083;-66
2021/10/07 04:02:26;;;;;;;12.60;6.88;;;11.20;99.90;;;;;;5016731;28;20120;-66
2021/10/07 04:04:52;;;;;;;9.15;6.97;;;11.20;99.90;;;;;;5011048;28;20026;-67
2021/10/07 04:07:17;;;;;;;19.48;7.57;;;11.20;99.90;;;;;;5013780;28;20041;-66
2021/10/07 04:09:43;;;;;;;13.10;7.03;;;11.20;99.90;;;;;;5013780;28;20394;-66
2021/10/07 04:12:09;;;;;;;8.82;6.57;;;11.20;99.90;;;;;;5026271;28;20022;-66
2021/10/07 04:14:35;;;;;;;15.25;7.45;;;11.20;99.90;;;;;;5013842;28;20018;-66
2021/10/07 04:17:00;;;;;;;14.20;7.18;;;11.30;99.90;;;;;;5016411;28;20014;-66
2021/10/07 04:19:26;;;;;;;9.55;7.40;;;11.30;99.90;;;;;;5013666;28;20471;-67
2021/10/07 04:21:51;;;;;;;14.02;7.43;;;11.30;99.90;;;;;;5011224;28;20041;-67
2021/10/07 04:24:17;;;;;;;9.93;7.50;;;11.30;99.90;;;;;;5011070;28;20559;-66
2021/10/07 04:26:42;;;;;;;10.05;7.20;;;11.30;99.90;;;;;;5023276;28;20425;-66
2021/10/07 04:29:08;;;;;;;12.68;7.38;;;11.30;99.90;;;;;;5026049;28;20026;-66
2021/10/07 04:31:33;;;;;;;11.50;7.75;;;11.30;99.90;;;;;;5013361;28;20481;-66
2021/10/07 04:34:12;;;;;;;11.88;8.23;;;11.30;99.90;;;;;;5016943;28;20030;-66
2021/10/07 04:36:40;;;;;;;14.70;8.68;;;11.30;99.90;;;;;;5014074;28;20030;-66
2021/10/07 04:39:05;;;;;;;11.73;7.93;;;11.30;99.90;;;;;;5015063;28;20025;-66
2021/10/07 04:41:31;;;;;;;11.95;8.73;;;11.30;99.90;;;;;;5012449;28;20026;-67
2021/10/07 04:43:57;;;;;;;11.10;7.78;;;11.30;99.90;;;;;;5013624;28;20026;-66
2021/10/07 04:46:22;;;;;;;13.52;9.20;;;11.30;99.90;;;;;;5013515;28;20017;-67
2021/10/07 04:48:49;;;;;;;12.50;9.20;;;11.30;99.90;;;;;;5010488;28;20129;-66
2021/10/07 04:51:15;;;;;;;12.45;7.90;;;11.30;99.90;;;;;;5010602;28;20109;-66
2021/10/07 04:53:41;;;;;;;16.35;8.30;;;11.30;99.90;;;;;;5013642;28;20065;-66
2021/10/07 04:56:07;;;;;;;13.65;8.18;;;11.30;99.90;;;;;;5010832;28;20046;-66
2021/10/07 04:58:33;;;;;;;10.80;8.07;;;11.30;99.90;;;;;;5010666;28;20030;-66
2021/10/07 05:00:58;;;;;;;13.27;7.88;;;11.30;99.90;;;;;;5013453;28;20045;-66
2021/10/07 05:03:24;;;;;;;11.15;7.60;;;11.30;99.90;;;;;;5015903;28;20033;-66
2021/10/07 05:05:49;;;;;;;10.07;6.85;;;11.30;99.90;;;;;;5012083;28;20180;-66
2021/10/07 05:08:15;;;;;;;13.00;6.55;;;11.30;99.90;;;;;;5019623;28;20025;-66
2021/10/07 05:10:41;;;;;;;13.48;6.68;;;11.40;99.90;;;;;;5022745;28;20160;-66
2021/10/07 05:13:06;;;;;;;15.07;6.57;;;11.40;99.90;;;;;;5015728;28;20018;-66
2021/10/07 05:15:32;;;;;;;15.23;7.10;;;11.40;99.90;;;;;;5029549;28;20052;-66
2021/10/07 05:17:57;;;;;;;17.42;7.35;;;11.40;99.90;;;;;;5019688;28;20033;-67
2021/10/07 05:20:23;;;;;;;15.23;6.47;;;11.40;99.90;;;;;;5013942;28;20037;-66
2021/10/07 05:22:49;;;;;;;16.65;7.45;;;11.40;99.90;;;;;;5016919;28;20497;-66
2021/10/07 05:25:14;;;;;;;11.55;6.13;;;11.50;99.90;;;;;;5014056;28;20037;-66
2021/10/07 05:27:40;;;;;;;15.35;7.13;;;11.40;99.90;;;;;;5029221;28;20030;-66
2021/10/07 05:30:07;;;;;;;12.98;7.28;;;11.50;99.90;;;;;;5022105;28;20030;-66
2021/10/07 05:32:33;;;;;;;13.90;7.10;;;11.50;99.90;;;;;;5012446;28;20029;-66
2021/10/07 05:34:59;;;;;;;14.10;6.70;;;11.50;99.90;;;;;;5013911;28;20018;-66
2021/10/07 05:38:05;;;;;;;23.67;7.05;;;11.50;99.90;;;;;;5012272;28;20029;-66
2021/10/07 05:40:31;;;;;;;20.90;6.75;;;11.50;99.90;;;;;;5018993;28;20080;-66
2021/10/07 05:42:59;;;;;;;11.43;5.90;;;11.50;99.90;;;;;;5016380;28;20041;-67
2021/10/07 05:45:25;;;;;;;10.20;5.72;;;11.50;99.90;;;;;;5012178;28;20017;-66
2021/10/07 05:47:50;;;;;;;19.75;7.63;;;11.40;99.90;;;;;;5016146;28;20034;-66
2021/10/07 05:50:26;;;;;;;12.00;6.85;;;11.40;99.90;;;;;;5023560;28;20030;-66
2021/10/07 05:52:52;;;;;;;18.30;5.60;;;11.30;99.90;;;;;;5032747;28;20389;-66
2021/10/07 05:55:17;;;;;;;9.90;5.40;;;11.30;99.90;;;;;;5032951;28;20485;-66
2021/10/07 05:57:43;;;;;;;13.65;5.70;;;11.30;99.90;;;;;;5033651;28;20407;-67
2021/10/07 06:00:10;;;;;;;8.75;5.15;;;11.30;99.90;;;;;;5035050;28;20112;-66
2021/10/07 06:02:36;;;;;;;12.45;5.00;;;11.30;99.90;;;;;;5034965;28;20033;-66
2021/10/07 06:05:09;;;;;;;13.77;5.43;;;11.40;99.90;;;;;;5034990;28;20021;-66
2021/10/07 06:07:35;;;;;;;10.45;4.20;;;11.40;99.90;;;;;;5034800;28;20021;-66
2021/10/07 06:10:01;;;;;;;11.80;6.70;;;11.40;99.90;;;;;;5030520;28;20025;-67
2021/10/07 06:12:26;;;;;;;16.35;7.78;;;11.30;99.90;;;;;;5029012;28;20049;-67
2021/10/07 06:14:52;;;;;;;10.13;6.07;;;11.30;99.90;;;;;;5032221;28;20021;-66
2021/10/07 06:17:17;;;;;;;9.35;5.40;;;11.30;99.90;;;;;;5015284;28;20013;-67
2021/10/07 06:19:46;;;;;;;16.95;5.90;;;11.30;99.90;;;;;;5030733;28;20033;-67
2021/10/07 06:22:12;;;;;;;9.38;6.93;;;11.30;99.90;;;;;;5012847;28;20025;-67
2021/10/07 06:24:38;;;;;;;11.48;7.97;;;11.30;99.90;;;;;;5029316;28;20116;-66
2021/10/07 06:27:51;;;;;;;;;;;;;;;;;;;;;
2021/10/07 06:33:21;;;;;;;12.48;7.65;;;11.20;99.90;;;;;;5002641;28;20224;-67
2021/10/07 06:35:47;;;;;;;13.30;7.75;;;11.10;99.90;;;;;;5024278;28;20061;-66
2021/10/07 06:38:12;;;;;;;14.70;8.15;;;11.10;99.90;;;;;;5024828;28;20057;-67
2021/10/07 06:40:38;;;;;;;13.50;8.90;;;11.20;99.90;;;;;;5030568;28;20448;-67
2021/10/07 06:43:25;;;;;;;10.05;7.45;;;11.20;99.90;;;;;;5032993;28;20029;-67
2021/10/07 06:45:51;;;;;;;13.40;9.95;;;11.20;99.90;;;;;;5032979;28;20401;-67
2021/10/07 06:48:17;;;;;;;13.45;10.38;;;11.20;99.90;;;;;;5020468;28;20052;-67
2021/10/07 06:50:42;;;;;;;17.00;8.70;;;11.20;99.90;;;;;;5014554;28;20405;-66
2021/10/07 06:53:09;;;;;;;11.02;7.43;;;11.20;99.90;;;;;;5029312;28;20024;-67
2021/10/07 06:55:40;;;;;;;11.80;9.00;;;11.20;99.90;;;;;;5029615;28;20483;-66
2021/10/07 06:58:06;;;;;;;10.00;7.80;;;11.30;99.90;;;;;;5033582;28;20358;-67
2021/10/07 07:01:01;;;;;;;9.85;6.43;;;11.30;99.90;;;;;;5031332;28;20029;-67
2021/10/07 07:03:37;;;;;;;11.45;8.90;;;11.40;99.90;;;;;;5031040;28;20044;-67
2021/10/07 07:12:50;;;;;;;10.70;9.15;;;11.20;99.90;;;;;;5000665;28;20461;-67
2021/10/07 07:15:17;;;;;;;12.60;8.25;;;11.10;99.90;;;;;;5013918;28;20062;-67
2021/10/07 07:17:42;;;;;;;14.70;8.75;;;11.20;99.90;;;;;;5028067;28;20036;-67
2021/10/07 07:20:09;;;;;;;12.25;8.55;;;11.20;99.90;;;;;;5014390;28;20489;-67
2021/10/07 07:25:23;;;;;;;10.77;8.93;;;11.20;99.90;;;;;;5017702;28;20099;-67
2021/10/07 07:27:48;;;;;;;13.40;8.73;;;11.10;99.90;;;;;;5032986;28;20385;-67
2021/10/07 07:30:14;;;;;;;12.02;9.05;;;11.00;99.90;;;;;;5021067;28;20547;-67
2021/10/07 07:32:40;;;;;;;11.20;9.55;;;11.10;99.90;;;;;;5012626;28;20026;-67
2021/10/07 07:35:06;;;;;;;11.95;9.68;;;11.10;99.90;;;;;;5028222;28;20010;-67
2021/10/07 07:37:31;;;;;;;12.10;9.65;;;11.10;99.90;;;;;;5028874;28;20389;-67
2021/10/07 07:42:51;;;;;;;13.65;10.10;;;11.10;99.90;;;;;;5010818;28;20075;-67
2021/10/07 07:45:17;;;;;;;11.77;8.30;;;11.20;99.90;;;;;;5013167;28;20112;-67
2021/10/07 07:47:44;;;;;;;10.95;8.52;;;11.20;99.90;;;;;;5024441;28;20136;-67
2021/10/07 07:50:11;;;;;;;8.57;7.00;;;11.20;99.90;;;;;;5021895;28;20041;-67
2021/10/07 07:52:37;;;;;;;7.78;6.38;;;11.40;99.90;;;;;;5023581;28;20133;-67
2021/10/07 07:55:04;;;;;;;11.45;9.57;;;11.50;99.90;;;;;;5017901;28;20144;-67
2021/10/07 07:57:29;;;;;;;14.27;10.30;;;11.50;99.90;;;;;;5024401;28;20555;-67
2021/10/07 07:59:55;;;;;;;15.63;10.27;;;11.50;99.90;;;;;;5026136;28;20061;-67
2021/10/07 08:02:20;;;;;;;12.02;9.45;;;11.50;99.90;;;;;;5012358;28;20033;-67
2021/10/07 08:04:46;;;;;;;11.05;7.93;;;11.50;99.90;;;;;;5012258;28;20109;-67
2021/10/07 08:07:13;;;;;;;10.20;6.88;;;11.60;99.90;;;;;;5025032;28;20492;-68
2021/10/07 08:09:43;;;;;;;10.65;7.50;;;11.70;99.90;;;;;;5035910;28;20021;-67
2021/10/07 08:12:13;;;;;;;12.02;8.80;;;11.80;99.90;;;;;;5016277;28;20045;-67
2021/10/07 08:14:43;;;;;;;15.13;10.60;;;11.90;99.90;;;;;;5023469;28;20014;-67
2021/10/07 08:17:09;;;;;;;14.88;10.75;;;12.00;99.90;;;;;;5014182;28;20037;-66
2021/10/07 08:19:35;;;;;;;12.80;10.15;;;12.00;99.90;;;;;;5023487;28;20504;-66
2021/10/07 08:22:01;;;;;;;13.52;8.85;;;12.00;99.90;;;;;;5011396;28;20026;-67
2021/10/07 08:24:26;;;;;;;10.18;8.35;;;12.10;99.90;;;;;;5017406;28;20026;-67
2021/10/07 08:26:52;;;;;;;15.32;12.25;;;12.20;99.90;;;;;;5017729;28;20038;-67
2021/10/07 08:29:17;;;;;;;16.77;13.40;;;12.20;99.90;;;;;;5030603;28;20037;-67
2021/10/07 08:31:43;;;;;;;16.50;12.35;;;12.20;99.90;;;;;;5030136;28;20111;-67
2021/10/07 08:34:09;;;;;;;14.35;11.13;;;12.20;99.90;;;;;;5031988;28;20412;-66
2021/10/07 08:36:42;;;;;;;13.40;10.85;;;12.20;99.90;;;;;;5011240;28;20055;-67
2021/10/07 08:39:33;;;;;;;15.07;11.95;;;12.20;99.90;;;;;;5011443;28;20379;-67
2021/10/07 08:42:07;;;;;;;11.75;8.88;;;12.30;99.90;;;;;;5024833;28;20441;-67
2021/10/07 08:44:32;;;;;;;11.70;8.77;;;12.30;99.90;;;;;;5030489;28;20489;-67
2021/10/07 08:46:58;;;;;;;16.17;12.80;;;12.40;99.90;;;;;;5018801;28;20084;-66
2021/10/07 08:49:27;;;;;;;17.70;13.30;;;12.40;99.90;;;;;;5024837;28;20025;-66
2021/10/07 08:51:53;;;;;;;14.88;12.40;;;12.40;99.90;;;;;;5020266;28;20022;-67
2021/10/07 08:54:19;;;;;;;16.35;13.07;;;12.30;99.90;;;;;;5040587;28;20512;-66
2021/10/07 08:56:44;;;;;;;15.98;12.57;;;12.20;99.90;;;;;;5019381;28;20509;-66
2021/10/07 08:59:10;;;;;;;16.17;12.80;;;12.10;99.90;;;;;;5014544;28;20029;-67
2021/10/07 09:01:42;;;;;;;15.88;12.48;;;12.10;99.90;;;;;;5027191;28;20100;-66
2021/10/07 09:04:42;;;;;;;12.70;10.52;;;12.10;99.90;;;;;;5017513;28;20490;-67
2021/10/07 09:07:09;;;;;;;16.67;12.32;;;12.20;99.90;;;;;;5020246;28;20084;-67
2021/10/07 09:09:40;;;;;;;17.60;13.18;;;12.10;99.90;;;;;;5023881;28;20041;-66
2021/10/07 09:12:08;;;;;;;15.45;12.55;;;12.20;99.90;;;;;;5010549;28;20021;-66
2021/10/07 09:14:38;;;;;;;14.73;11.35;;;12.20;99.90;;;;;;5011496;28;20033;-66
2021/10/07 09:17:28;;;;;;;;;;;;;;;;;;;;;
2021/10/07 09:19:53;;;;;;;16.02;13.70;;;12.40;99.90;;;;;;5030400;28;20044;-66
2021/10/07 09:22:23;;;;;;;14.57;11.60;;;12.40;99.90;;;;;;5031860;28;20537;-66
2021/10/07 09:25:13;;;;;;;;;;;12.40;99.90;;;;;;5028357;28;20037;-66
2021/10/07 09:34:48;;;;;;;14.82;11.95;;;12.40;99.90;;;;;;5014401;28;20032;-67
2021/10/07 09:37:31;;;;;;;13.90;11.38;;;12.30;99.90;;;;;;5019901;28;20619;-67
2021/10/07 09:40:16;;;;;;;;;;;;;;;;;;;;;
2021/10/07 09:42:48;;;;;;;15.57;12.63;;;12.50;99.90;;;;;;5011818;28;20037;-66
2021/10/07 09:45:31;;;;;;;14.15;11.65;;;12.50;99.90;;;;;;5019245;28;20043;-66
2021/10/07 09:48:00;;;;;;;14.77;11.25;;;12.50;99.90;;;;;;5021126;28;20405;-66
2021/10/07 09:50:28;;;;;;;12.27;9.77;;;12.50;99.90;;;;;;5019473;28;20025;-67
2021/10/07 09:53:26;;;;;;;11.30;9.50;;;12.70;99.90;;;;;;5027903;28;20381;-66
2021/10/07 09:56:18;;;;;;;12.82;10.27;;;12.90;99.90;;;;;;5023645;28;20018;-66
2021/10/07 09:58:43;;;;;;;14.73;11.63;;;13.30;99.90;;;;;;5020591;28;20020;-66
2021/10/07 10:01:09;;;;;;;15.25;11.77;;;13.40;99.90;;;;;;5024643;28;20030;-67
2021/10/07 10:03:35;;;;;;;16.67;13.48;;;13.40;99.90;;;;;;5014555;28;20054;-67
2021/10/07 10:06:00;;;;;;;16.40;13.00;;;13.40;99.90;;;;;;5022714;28;20026;-66
2021/10/07 10:08:28;;;;;;;17.85;13.32;;;13.40;99.90;;;;;;5020574;28;20030;-67
2021/10/07 10:10:53;;;;;;;15.70;12.35;;;13.30;99.90;;;;;;5032116;28;20053;-66
2021/10/07 10:13:19;;;;;;;19.35;15.00;;;13.10;99.90;;;;;;5021109;28;20489;-66
2021/10/07 10:15:45;;;;;;;18.13;13.98;;;13.10;99.90;;;;;;5033711;28;20025;-67
2021/10/07 10:18:13;;;;;;;19.05;12.27;;;12.90;99.90;;;;;;5023073;28;20053;-67
2021/10/07 10:20:42;;;;;;;17.13;12.93;;;12.90;99.90;;;;;;5029717;28;20030;-66
2021/10/07 10:23:10;;;;;;;21.92;15.27;;;13.00;99.90;;;;;;5023337;28;20552;-67
2021/10/07 10:25:59;;;;;;;18.83;14.35;;;13.00;99.90;;;;;;5024339;28;20033;-67
2021/10/07 10:28:55;;;;;;;20.80;14.77;;;13.10;99.90;;;;;;5023526;28;20536;-67
2021/10/07 10:31:33;;;;;;;20.30;14.27;;;13.20;99.90;;;;;;5026636;28;20284;-67
2021/10/07 10:34:19;;;;;;;19.73;13.70;;;13.10;99.90;;;;;;5018715;28;20375;-67
2021/10/07 10:36:49;;;;;;;16.38;12.82;;;13.10;99.90;;;;;;5026761;28;20042;-67
2021/10/07 10:39:18;;;;;;;;;;;13.10;99.90;;;;;;5034283;28;20021;-67
2021/10/07 10:45:15;;;;;;;13.52;10.75;;;13.40;99.90;;;;;;5013650;28;20032;-67
2021/10/07 10:47:55;;;;;;;;;;;;;;;;;;;;;
2021/10/07 10:57:36;;;;;;;14.00;11.45;;;13.80;99.90;;;;;;4958323;28;20046;-67
2021/10/07 11:00:20;;;;;;;13.23;9.95;;;13.90;99.90;;;;;;5005192;28;20096;-67
2021/10/07 11:02:47;;;;;;;12.43;9.63;;;14.00;99.90;;;;;;5007478;28;20072;-67
2021/10/07 11:05:13;;;;;;;13.43;9.85;;;14.10;99.90;;;;;;5021745;28;20040;-67
2021/10/07 11:10:53;;;;;;;13.87;10.37;;;14.30;99.50;;;;;;5025598;28;20037;-67
2021/10/07 11:13:26;;;;;;;12.57;11.25;;;14.50;99.30;;;;;;5028143;28;20029;-67
2021/10/07 11:15:58;;;;;;;13.70;10.45;;;14.90;98.30;;;;;;5029536;28;20117;-67
2021/10/07 11:18:28;;;;;;;12.60;10.25;;;14.80;97.90;;;;;;5028396;28;20088;-67
2021/10/07 11:21:36;;;;;;;;;;;;;;;;;;;;;
2021/10/07 11:24:11;;;;;;;10.77;9.68;;;15.00;98.20;;;;;;5008164;28;20050;-67
2021/10/07 11:26:37;;;;;;;11.25;9.50;;;15.50;97.50;;;;;;5010819;28;20105;-67
2021/10/07 11:29:03;;;;;;;10.25;8.18;;;15.60;96.10;;;;;;5025641;28;20064;-66
2021/10/07 11:31:29;;;;;;;8.43;7.57;;;15.40;96.40;;;;;;5029906;28;20434;-66
2021/10/07 11:34:00;;;;;;;8.23;7.03;;;15.50;96.90;;;;;;5050380;28;20052;-67
2021/10/07 11:36:28;;;;;;;8.73;7.47;;;15.60;97.10;;;;;;5040361;28;20018;-67
2021/10/07 11:38:55;;;;;;;9.07;7.57;;;15.80;97.10;;;;;;5028800;28;20028;-67
2021/10/07 11:41:24;;;;;;;10.20;8.02;;;16.00;97.20;;;;;;5029638;28;20021;-67
2021/10/07 11:43:52;;;;;;;13.65;11.00;;;16.10;96.70;;;;;;5025144;28;20389;-67
2021/10/07 11:46:43;;;;;;;11.70;9.43;;;16.40;95.70;;;;;;5031142;28;20021;-67
2021/10/07 11:49:11;;;;;;;11.38;9.45;;;16.40;95.40;;;;;;5021683;28;20044;-67
2021/10/07 11:52:14;;;;;;;;;;;;;;;;;;;;;
2021/10/07 11:54:52;;;;;;;11.35;9.40;;;16.20;95.20;;;;;;5028075;28;20033;-66
2021/10/07 11:57:18;;;;;;;9.50;8.35;;;16.40;95.50;;;;;;5025423;28;20029;-67
2021/10/07 12:00:37;;;;;;;10.50;8.93;;;16.90;95.50;;;;;;5017375;28;20033;-67
2021/10/07 12:03:32;;;;;;;8.40;7.50;;;18.20;93.50;;;;;;5027173;28;20033;-67
2021/10/07 12:06:06;;;;;;;9.15;8.25;;;20.60;91.50;;;;;;5016140;28;20152;-66
2021/10/07 12:15:58;;;;;;;6.57;5.85;;;22.30;79.30;;;;;;4982742;28;20077;-67
2021/10/07 12:18:25;;;;;;;5.55;5.03;;;22.00;82.30;;;;;;4965649;28;20564;-67
2021/10/07 12:21:21;;;;;;;5.78;5.10;;;21.70;84.00;;;;;;5007145;28;20059;-67
2021/10/07 12:24:03;;;;;;;7.70;6.90;;;21.50;85.30;;;;;;5017462;28;20075;-67
2021/10/07 12:26:48;;;;;;;8.82;7.93;;;21.40;84.00;;;;;;5012725;28;20028;-67
2021/10/07 12:29:22;;;;;;;7.57;6.88;;;21.40;79.60;;;;;;5027243;28;20018;-67
2021/10/07 12:31:56;;;;;;;7.03;6.35;;;21.40;78.00;;;;;;5019902;28;20495;-67
2021/10/07 12:34:26;;;;;;;6.60;6.00;;;21.00;78.10;;;;;;5024513;28;20018;-67
2021/10/07 12:36:53;;;;;;;8.55;7.68;;;20.80;79.40;;;;;;5032099;28;20029;-67
2021/10/07 12:39:33;;;;;;;8.55;7.45;;;20.50;79.20;;;;;;5022472;28;20022;-67
2021/10/07 12:42:09;;;;;;;7.18;5.93;;;21.00;78.70;;;;;;5012279;28;20076;-67
2021/10/07 12:44:44;;;;;;;5.93;5.43;;;22.00;78.30;;;;;;5012391;28;20548;-67
2021/10/07 12:47:15;;;;;;;4.50;3.92;;;23.40;76.90;;;;;;5012455;28;20038;-67
2021/10/07 12:49:45;;;;;;;3.10;2.80;;;25.60;74.90;;;;;;5027230;28;20485;-67
2021/10/07 12:52:19;;;;;;;3.40;3.10;;;27.40;71.40;;;;;;5017828;28;20030;-67
2021/10/07 12:54:56;;;;;;;2.83;2.55;;;28.80;68.50;;;;;;5012221;28;20029;-67
2021/10/07 12:57:45;;;;;;;3.47;3.17;;;30.00;66.00;;;;;;5027601;28;20026;-68
2021/10/07 13:00:37;;;;;;;2.85;2.60;;;30.80;62.30;;;;;;5014211;28;20017;-67
2021/10/07 13:03:17;;;;;;;2.80;2.55;;;31.50;61.50;;;;;;5026025;28;20026;-68
2021/10/07 13:05:44;;;;;;;2.60;2.03;;;32.20;60.00;;;;;;5017773;28;20068;-68
2021/10/07 13:08:13;;;;;;;2.97;2.58;;;32.90;59.10;;;;;;5020471;28;20037;-68
2021/10/07 13:10:44;;;;;;;3.78;3.20;;;33.40;55.60;;;;;;5028225;28;20060;-68
2021/10/07 13:13:10;;;;;;;4.47;4.07;;;32.70;50.10;;;;;;5014372;28;20037;-68
2021/10/07 13:18:35;;;;;;;7.03;4.47;;;28.60;50.10;;;;;;5029259;28;20029;-67
2021/10/07 13:21:01;;;;;;;5.10;4.70;;;26.70;54.30;;;;;;5015072;28;20045;-68
2021/10/07 13:23:26;;;;;;;4.20;3.80;;;25.90;55.00;;;;;;5023284;28;20026;-67
2021/10/07 13:25:52;;;;;;;5.30;4.05;;;26.10;56.60;;;;;;5013106;28;20484;-67
2021/10/07 13:28:17;;;;;;;6.70;4.38;;;27.10;56.00;;;;;;5024013;28;20030;-68
2021/10/07 13:30:43;;;;;;;5.03;4.32;;;27.20;53.50;;;;;;5019730;28;20529;-68
2021/10/07 13:33:08;;;;;;;5.22;4.65;;;27.20;54.80;;;;;;5022656;28;20087;-68
2021/10/07 13:35:35;;;;;;;5.10;4.60;;;27.30;53.00;;;;;;5035563;28;20030;-68
2021/10/07 13:38:01;;;;;;;4.28;2.92;;;26.50;54.00;;;;;;5033902;28;20104;-68
2021/10/07 13:40:31;;;;;;;2.60;2.40;;;27.20;55.60;;;;;;5028133;28;20032;-68
2021/10/07 13:42:59;;;;;;;2.78;2.47;;;28.50;55.60;;;;;;5034353;28;20100;-68
2021/10/07 13:45:25;;;;;;;2.90;2.43;;;29.30;52.80;;;;;;5028260;28;20026;-68